createdAt,value
2023-03-22T00:02:30.588Z,19.30
2023-03-22T00:05:03.296Z,21.00
2023-03-22T00:07:35.675Z,20.50
2023-03-22T00:10:11.819Z,19.90
2023-03-22T00:12:44.283Z,18.40
2023-03-22T00:15:16.663Z,17.90
2023-03-22T00:17:50.349Z,18.10
2023-03-22T00:20:23.729Z,16.00
2023-03-22T00:22:56.198Z,15.60
2023-03-22T00:25:28.896Z,15.90
2023-03-22T00:28:01.192Z,17.50
2023-03-22T00:30:33.608Z,17.80
2023-03-22T00:33:06.390Z,17.70
2023-03-22T00:35:38.602Z,17.70
2023-03-22T00:38:14.509Z,17.30
2023-03-22T00:40:47.883Z,16.90
2023-03-22T00:43:20.486Z,17.10
2023-03-22T00:45:52.888Z,19.80
2023-03-22T00:48:25.192Z,16.90
2023-03-22T00:50:57.648Z,16.10
2023-03-22T00:53:30.457Z,16.90
2023-03-22T00:56:02.806Z,15.40
2023-03-22T00:58:40.585Z,14.80
2023-03-22T01:01:14.840Z,19.40
2023-03-22T01:03:50.829Z,17.90
2023-03-22T01:06:23.469Z,14.20
2023-03-22T01:08:57.600Z,16.30
2023-03-22T01:11:30.604Z,17.40
2023-03-22T01:14:03.913Z,17.00
2023-03-22T01:16:36.308Z,18.40
2023-03-22T01:19:08.853Z,17.50
2023-03-22T01:21:41.162Z,19.70
2023-03-22T01:24:13.586Z,17.10
2023-03-22T01:26:46.011Z,16.70
2023-03-22T01:29:18.683Z,16.60
2023-03-22T01:31:51.038Z,18.40
2023-03-22T01:34:23.519Z,17.00
2023-03-22T01:36:56.277Z,17.60
2023-03-22T01:39:29.020Z,18.90
2023-03-22T01:42:05.615Z,18.60
2023-03-22T01:44:39.830Z,19.50
2023-03-22T01:47:12.865Z,19.20
2023-03-22T01:49:45.188Z,17.40
2023-03-22T01:52:18.076Z,19.10
2023-03-22T01:55:09.489Z,19.00
2023-03-22T01:57:47.476Z,19.70
2023-03-22T02:00:27.958Z,20.10
2023-03-22T02:03:20.491Z,17.50
2023-03-22T02:05:53.930Z,18.10
2023-03-22T02:08:27.884Z,17.70
2023-03-22T02:11:05.655Z,20.00
2023-03-22T02:13:56.185Z,18.90
2023-03-22T02:16:57.170Z,18.70
2023-03-22T02:19:52.134Z,18.80
2023-03-22T02:22:58.468Z,20.70
2023-03-22T02:28:24.302Z,16.50
2023-03-22T02:31:18.262Z,17.30
2023-03-22T02:34:27.371Z,17.30
2023-03-22T02:37:18.514Z,18.20
2023-03-22T02:39:55.182Z,17.50
2023-03-22T02:42:36.175Z,19.40
2023-03-22T02:45:16.235Z,19.20
2023-03-22T02:47:57.611Z,19.50
2023-03-22T02:50:36.720Z,18.70
2023-03-22T02:53:16.160Z,18.50
2023-03-22T02:55:53.653Z,17.60
2023-03-22T02:58:30.105Z,19.10
2023-03-22T03:01:07.333Z,17.90
2023-03-22T03:03:40.852Z,17.50
2023-03-22T03:06:19.338Z,18.30
2023-03-22T03:08:53.516Z,16.80
2023-03-22T03:11:26.018Z,18.60
2023-03-22T03:13:58.947Z,18.10
2023-03-22T03:16:36.792Z,18.00
2023-03-22T03:19:21.262Z,16.20
2023-03-22T03:22:02.218Z,17.70
2023-03-22T03:24:40.974Z,18.70
2023-03-22T03:27:20.248Z,19.30
2023-03-22T03:30:01.509Z,19.00
2023-03-22T03:32:37.549Z,18.40
2023-03-22T03:35:22.640Z,19.40
2023-03-22T03:38:01.535Z,19.20
2023-03-22T03:40:38.880Z,20.10
2023-03-22T03:43:12.087Z,18.90
2023-03-22T03:45:45.808Z,19.30
2023-03-22T03:48:22.993Z,19.50
2023-03-22T03:50:57.788Z,19.00
2023-03-22T03:53:30.313Z,18.70
2023-03-22T03:56:02.715Z,18.00
2023-03-22T03:58:40.969Z,19.10
2023-03-22T04:01:13.766Z,19.20
2023-03-22T04:04:15.618Z,19.60
2023-03-22T04:07:00.722Z,20.30
2023-03-22T04:09:37.031Z,20.60
2023-03-22T04:12:31.362Z,20.60
2023-03-22T04:15:18.354Z,19.30
2023-03-22T04:17:55.082Z,19.30
2023-03-22T04:20:29.927Z,18.80
2023-03-22T04:23:02.415Z,18.40
2023-03-22T04:25:38.029Z,19.30
2023-03-22T04:28:14.360Z,21.30
2023-03-22T04:30:46.847Z,19.70
2023-03-22T04:33:28.167Z,19.90
2023-03-22T04:36:17.588Z,20.90
2023-03-22T04:41:44.076Z,21.80
2023-03-22T04:44:16.486Z,21.10
2023-03-22T04:46:55.993Z,19.70
2023-03-22T04:49:28.411Z,26.00
2023-03-22T04:52:01.008Z,26.00
2023-03-22T04:54:43.170Z,23.30
2023-03-22T04:57:15.580Z,33.20
2023-03-22T04:59:51.050Z,29.90
2023-03-22T05:02:23.586Z,30.60
2023-03-22T05:04:56.215Z,38.70
2023-03-22T05:07:36.607Z,36.40
2023-03-22T05:10:11.031Z,27.30
2023-03-22T05:15:22.771Z,23.60
2023-03-22T05:17:56.864Z,20.50
2023-03-22T05:20:29.262Z,24.70
2023-03-22T05:23:23.636Z,27.40
2023-03-22T05:26:01.748Z,23.90
2023-03-22T05:28:34.511Z,21.50
2023-03-22T05:31:15.691Z,21.90
2023-03-22T05:33:53.286Z,21.30
2023-03-22T05:36:26.212Z,22.70
2023-03-22T05:39:24.437Z,30.60
2023-03-22T05:41:57.350Z,33.90
2023-03-22T05:44:29.794Z,30.00
2023-03-22T05:47:13.670Z,23.50
2023-03-22T05:50:07.495Z,22.10
2023-03-22T05:52:40.158Z,21.50
2023-03-22T05:55:33.343Z,22.30
2023-03-22T05:58:08.556Z,23.10
2023-03-22T06:00:43.313Z,24.50
2023-03-22T06:03:35.995Z,29.20
2023-03-22T06:06:16.684Z,26.80
2023-03-22T06:09:07.249Z,28.10
2023-03-22T06:11:47.015Z,25.70
2023-03-22T06:14:20.469Z,25.20
2023-03-22T06:17:08.247Z,24.70
2023-03-22T06:19:40.624Z,27.60
2023-03-22T06:22:13.625Z,28.00
2023-03-22T06:24:46.099Z,27.90
2023-03-22T06:27:22.588Z,25.80
2023-03-22T06:29:55.248Z,31.30
2023-03-22T06:32:30.022Z,31.30
2023-03-22T06:35:03.026Z,25.10
2023-03-22T06:37:35.419Z,26.70
2023-03-22T06:40:11.841Z,26.20
2023-03-22T06:42:44.257Z,25.70
2023-03-22T06:45:18.164Z,27.80
2023-03-22T06:47:51.832Z,26.50
2023-03-22T06:50:44.081Z,27.50
2023-03-22T06:53:24.120Z,35.50
2023-03-22T06:55:56.674Z,32.90
2023-03-22T06:58:30.078Z,30.20
2023-03-22T07:01:03.618Z,29.10
2023-03-22T07:03:37.469Z,27.60
2023-03-22T07:06:15.148Z,27.00
2023-03-22T07:08:52.017Z,26.20
2023-03-22T07:11:27.997Z,26.50
2023-03-22T07:14:05.539Z,31.40
2023-03-22T07:16:53.708Z,31.30
2023-03-22T07:19:27.863Z,29.20
2023-03-22T07:22:00.623Z,32.20
2023-03-22T07:24:33.423Z,31.40
2023-03-22T07:27:07.878Z,31.40
2023-03-22T07:29:41.342Z,31.50
2023-03-22T07:32:14.007Z,28.60
2023-03-22T07:34:59.413Z,28.70
2023-03-22T07:37:31.776Z,30.50
2023-03-22T07:40:05.338Z,28.70
2023-03-22T07:42:37.896Z,31.10
2023-03-22T07:45:28.769Z,30.60
2023-03-22T07:48:22.977Z,33.20
2023-03-22T07:51:21.529Z,32.90
2023-03-22T07:53:54.352Z,31.30
2023-03-22T07:56:26.803Z,57.10
2023-03-22T07:58:59.333Z,115.20
2023-03-22T08:01:32.008Z,44.00
2023-03-22T08:04:10.755Z,38.90
2023-03-22T08:06:54.933Z,45.80
2023-03-22T08:09:27.643Z,47.30
2023-03-22T08:12:00.954Z,37.70
2023-03-22T08:14:36.835Z,45.90
2023-03-22T08:17:12.456Z,42.20
2023-03-22T08:19:45.420Z,41.10
2023-03-22T08:25:19.782Z,45.80
2023-03-22T08:27:53.059Z,34.70
2023-03-22T08:30:25.476Z,34.10
2023-03-22T08:32:58.388Z,37.10
2023-03-22T08:35:30.899Z,53.20
2023-03-22T08:38:03.641Z,48.30
2023-03-22T08:40:43.089Z,50.10
2023-03-22T08:43:15.475Z,39.10
2023-03-22T08:45:48.861Z,38.40
2023-03-22T08:48:22.215Z,39.10
2023-03-22T08:51:10.745Z,38.90
2023-03-22T08:54:09.798Z,35.20
2023-03-22T08:57:03.345Z,39.90
2023-03-22T08:59:59.069Z,41.80
2023-03-22T09:02:44.515Z,38.90
2023-03-22T09:05:17.101Z,44.30
2023-03-22T09:07:52.589Z,36.80
2023-03-22T09:10:41.008Z,40.20
2023-03-22T09:13:16.639Z,39.60
2023-03-22T09:15:54.686Z,37.20
2023-03-22T09:18:32.699Z,41.00
2023-03-22T09:21:10.186Z,39.60
2023-03-22T09:23:55.105Z,50.00
2023-03-22T09:26:32.642Z,36.50
2023-03-22T09:29:05.250Z,37.60
2023-03-22T09:31:39.269Z,36.90
2023-03-22T09:34:27.178Z,39.80
2023-03-22T09:37:02.530Z,40.00
2023-03-22T09:39:38.851Z,49.50
2023-03-22T09:42:29.398Z,39.30
2023-03-22T09:45:05.216Z,42.60
2023-03-22T09:47:44.988Z,53.40
2023-03-22T09:50:23.236Z,69.10
2023-03-22T09:52:56.358Z,47.20
2023-03-22T09:55:38.732Z,46.80
2023-03-22T09:58:24.672Z,43.20
2023-03-22T10:01:02.364Z,41.50
2023-03-22T10:04:14.972Z,43.00
2023-03-22T10:06:52.086Z,39.20
2023-03-22T10:09:29.718Z,60.50
2023-03-22T10:12:09.204Z,45.50
2023-03-22T10:14:47.992Z,48.10
2023-03-22T10:17:25.331Z,50.60
2023-03-22T10:20:01.875Z,46.30
2023-03-22T10:22:39.401Z,43.00
2023-03-22T10:25:17.165Z,41.90
2023-03-22T10:27:52.685Z,40.40
2023-03-22T10:30:27.542Z,46.80
2023-03-22T10:33:03.685Z,40.00
2023-03-22T10:35:36.383Z,49.10
2023-03-22T10:38:17.805Z,43.20
2023-03-22T10:40:54.083Z,48.40
2023-03-22T10:43:33.102Z,38.20
2023-03-22T10:46:09.210Z,36.90
2023-03-22T10:48:45.340Z,48.50
2023-03-22T10:51:26.751Z,44.20
2023-03-22T10:54:01.653Z,40.30
2023-03-22T10:56:33.918Z,35.80
2023-03-22T10:59:06.213Z,37.20
2023-03-22T11:01:45.260Z,40.50
2023-03-22T11:04:18.280Z,54.70
2023-03-22T11:06:56.434Z,44.10
2023-03-22T11:09:28.921Z,41.20
2023-03-22T11:12:02.394Z,37.40
2023-03-22T11:14:37.387Z,43.70
2023-03-22T11:17:14.664Z,43.50
2023-03-22T11:19:56.918Z,33.20
2023-03-22T11:22:35.872Z,31.00
2023-03-22T11:25:15.649Z,42.90
2023-03-22T11:27:56.271Z,30.00
2023-03-22T11:30:32.567Z,37.30
2023-03-22T11:33:18.806Z,34.70
2023-03-22T11:35:57.853Z,33.20
2023-03-22T11:38:36.722Z,30.50
2023-03-22T11:41:16.992Z,30.80
2023-03-22T11:43:54.368Z,30.80
2023-03-22T11:46:27.330Z,32.60
2023-03-22T11:49:03.848Z,29.80
2023-03-22T11:51:39.742Z,35.10
2023-03-22T11:54:20.786Z,40.40
2023-03-22T11:56:55.867Z,40.90
2023-03-22T12:02:06.676Z,43.50
2023-03-22T12:04:42.177Z,44.30
2023-03-22T12:07:19.556Z,57.90
2023-03-22T12:09:59.123Z,52.40
2023-03-22T12:12:37.123Z,48.60
2023-03-22T12:15:18.847Z,48.70
2023-03-22T12:17:57.843Z,48.70
2023-03-22T12:20:41.304Z,39.30
2023-03-22T12:23:19.393Z,77.90
2023-03-22T12:25:56.386Z,127.30
2023-03-22T12:28:34.661Z,46.80
2023-03-22T12:31:11.790Z,35.10
2023-03-22T12:33:48.374Z,91.20
2023-03-22T12:36:23.398Z,44.80
2023-03-22T12:41:33.646Z,39.10
2023-03-22T12:44:12.302Z,50.90
2023-03-22T12:46:51.816Z,53.10
2023-03-22T12:49:31.232Z,34.60
2023-03-22T12:52:13.306Z,37.10
2023-03-22T12:54:48.129Z,29.80
2023-03-22T12:57:20.957Z,26.90
2023-03-22T12:59:56.912Z,24.20
2023-03-22T13:02:32.749Z,24.90
2023-03-22T13:05:09.368Z,22.00
2023-03-22T13:07:54.458Z,21.30
2023-03-22T13:11:11.777Z,26.20
2023-03-22T13:13:48.986Z,26.70
2023-03-22T13:16:24.855Z,24.10
2023-03-22T13:19:03.197Z,24.70
2023-03-22T13:21:39.748Z,26.30
2023-03-22T13:24:26.498Z,23.90
2023-03-22T13:27:02.166Z,20.50
2023-03-22T13:29:41.969Z,21.30
2023-03-22T13:32:33.472Z,21.30
2023-03-22T13:35:22.020Z,24.40
2023-03-22T13:37:55.555Z,19.60
2023-03-22T13:40:36.307Z,32.40
2023-03-22T13:43:29.002Z,23.70
2023-03-22T13:46:44.935Z,20.70
2023-03-22T13:49:32.987Z,27.80
2023-03-22T13:52:10.672Z,23.10
2023-03-22T13:54:49.623Z,42.10
2023-03-22T13:57:45.607Z,58.10
2023-03-22T14:00:44.913Z,32.50
2023-03-22T14:03:25.664Z,32.00
2023-03-22T14:06:07.445Z,25.50
2023-03-22T14:08:41.816Z,29.00
2023-03-22T14:11:31.036Z,27.60
2023-03-22T14:14:07.925Z,27.70
2023-03-22T14:16:43.835Z,26.30
2023-03-22T14:19:21.646Z,24.20
